createdAt,value
2018-09-18T00:00:26.304Z,59.30
2018-09-18T00:02:55.645Z,59.40
2018-09-18T00:05:25.018Z,59.40
2018-09-18T00:07:54.355Z,59.50
2018-09-18T00:10:23.712Z,59.50
2018-09-18T00:12:53.078Z,59.50
2018-09-18T00:15:22.414Z,59.50
2018-09-18T00:17:51.796Z,59.50
2018-09-18T00:20:21.159Z,59.60
2018-09-18T00:22:50.583Z,59.60
2018-09-18T00:25:19.980Z,59.60
2018-09-18T00:27:49.319Z,59.70
2018-09-18T00:30:18.647Z,59.70
2018-09-18T00:32:48.038Z,59.70
2018-09-18T00:35:17.436Z,59.70
2018-09-18T00:37:46.866Z,59.70
2018-09-18T00:40:16.192Z,59.70
2018-09-18T00:42:45.511Z,59.70
2018-09-18T00:45:14.872Z,59.80
2018-09-18T00:47:44.173Z,59.80
2018-09-18T00:50:13.535Z,59.80
2018-09-18T00:52:42.884Z,59.80
2018-09-18T00:55:12.244Z,59.80
2018-09-18T00:57:41.580Z,59.80
2018-09-18T01:00:11.003Z,59.90
2018-09-18T01:02:40.365Z,59.80
2018-09-18T01:05:09.732Z,59.40
2018-09-18T01:07:39.073Z,59.90
2018-09-18T01:10:08.447Z,59.90
2018-09-18T01:12:37.812Z,59.90
2018-09-18T01:15:07.279Z,59.90
2018-09-18T01:17:36.607Z,59.90
2018-09-18T01:20:06.000Z,59.90
2018-09-18T01:22:35.339Z,59.90
2018-09-18T01:25:04.691Z,60.00
2018-09-18T01:27:34.049Z,60.10
2018-09-18T01:30:03.394Z,60.10
2018-09-18T01:32:32.709Z,60.10
2018-09-18T01:35:02.065Z,60.20
2018-09-18T01:37:31.411Z,60.20
2018-09-18T01:40:00.763Z,60.20
2018-09-18T01:42:30.212Z,60.20
2018-09-18T01:44:59.595Z,60.30
2018-09-18T01:47:28.944Z,60.30
2018-09-18T01:49:58.279Z,60.40
2018-09-18T01:52:27.606Z,60.40
2018-09-18T01:54:56.999Z,60.50
2018-09-18T01:57:26.404Z,60.50
2018-09-18T01:59:55.748Z,60.60
2018-09-18T02:02:25.094Z,60.60
2018-09-18T02:04:54.426Z,60.50
2018-09-18T02:07:23.751Z,60.60
2018-09-18T02:09:53.188Z,60.50
2018-09-18T02:12:22.516Z,60.50
2018-09-18T02:14:51.885Z,60.50
2018-09-18T02:17:21.229Z,60.50
2018-09-18T02:19:51.166Z,60.50
2018-09-18T02:22:20.492Z,60.50
2018-09-18T02:24:49.830Z,60.50
2018-09-18T02:27:19.175Z,60.40
2018-09-18T02:29:48.563Z,61.00
2018-09-18T02:32:17.875Z,60.40
2018-09-18T02:34:47.227Z,60.50
2018-09-18T02:37:16.625Z,60.50
2018-09-18T02:39:45.952Z,60.50
2018-09-18T02:42:15.284Z,60.50
2018-09-18T02:44:44.612Z,60.50
2018-09-18T02:47:13.962Z,60.60
2018-09-18T02:49:43.283Z,60.60
2018-09-18T02:52:12.639Z,60.70
2018-09-18T02:54:42.152Z,60.60
2018-09-18T02:57:11.556Z,60.60
2018-09-18T02:59:40.889Z,60.60
2018-09-18T03:02:10.204Z,60.70
2018-09-18T03:04:39.659Z,60.70
2018-09-18T03:07:08.952Z,60.70
2018-09-18T03:09:38.349Z,61.60
2018-09-18T03:12:07.670Z,60.70
2018-09-18T03:14:37.045Z,60.70
2018-09-18T03:17:06.364Z,60.80
2018-09-18T03:19:35.730Z,60.80
2018-09-18T03:22:05.022Z,60.90
2018-09-18T03:24:34.392Z,61.00
2018-09-18T03:27:03.724Z,61.00
2018-09-18T03:29:33.085Z,61.00
2018-09-18T03:32:02.461Z,61.00
2018-09-18T03:34:31.875Z,61.00
2018-09-18T03:37:01.222Z,61.00
2018-09-18T03:39:30.607Z,60.90
2018-09-18T03:41:59.996Z,61.00
2018-09-18T03:44:29.364Z,61.00
2018-09-18T03:46:58.670Z,61.00
2018-09-18T03:49:28.016Z,60.90
2018-09-18T03:51:57.379Z,60.90
2018-09-18T03:54:26.776Z,60.90
2018-09-18T03:56:56.133Z,61.00
2018-09-18T03:59:25.510Z,61.00
2018-09-18T04:01:54.837Z,61.00
2018-09-18T04:04:24.239Z,61.00
2018-09-18T04:06:53.599Z,61.00
2018-09-18T04:09:22.941Z,61.00
2018-09-18T04:11:52.313Z,61.00
2018-09-18T04:14:21.672Z,61.00
2018-09-18T04:16:51.081Z,61.00
2018-09-18T04:19:20.513Z,61.00
2018-09-18T04:21:49.911Z,61.00
2018-09-18T04:24:19.359Z,61.00
2018-09-18T04:26:48.735Z,61.00
2018-09-18T04:29:18.316Z,61.00
2018-09-18T04:31:47.686Z,61.00
2018-09-18T04:34:17.032Z,61.10
2018-09-18T04:36:46.391Z,61.30
2018-09-18T04:39:15.708Z,61.10
2018-09-18T04:41:45.041Z,61.20
2018-09-18T04:44:15.059Z,61.20
2018-09-18T04:46:44.450Z,61.30
2018-09-18T04:49:13.791Z,61.20
2018-09-18T04:51:43.254Z,61.20
2018-09-18T04:54:12.589Z,61.20
2018-09-18T04:56:41.986Z,61.10
2018-09-18T04:59:11.334Z,61.20
2018-09-18T05:01:40.748Z,61.20
2018-09-18T05:04:10.200Z,61.30
2018-09-18T05:06:39.561Z,61.30
2018-09-18T05:09:10.933Z,61.30
2018-09-18T05:11:40.392Z,61.40
2018-09-18T05:14:09.764Z,61.50
2018-09-18T05:16:39.220Z,61.40
2018-09-18T05:19:08.610Z,61.40
2018-09-18T05:21:37.986Z,61.50
2018-09-18T05:24:07.505Z,61.60
2018-09-18T05:26:36.836Z,61.60
2018-09-18T05:29:06.219Z,62.40
2018-09-18T05:31:35.571Z,61.80
2018-09-18T05:34:04.910Z,61.80
2018-09-18T05:36:34.263Z,61.90
2018-09-18T05:39:03.787Z,61.90
2018-09-18T05:41:33.116Z,62.00
2018-09-18T05:44:02.494Z,62.00
2018-09-18T05:46:32.204Z,62.10
2018-09-18T05:49:01.576Z,63.00
2018-09-18T05:51:30.931Z,62.20
2018-09-18T05:54:00.264Z,62.30
2018-09-18T05:56:29.862Z,62.40
2018-09-18T05:58:59.219Z,62.50
2018-09-18T06:01:28.571Z,62.50
2018-09-18T06:03:57.917Z,62.50
2018-09-18T06:06:27.352Z,62.50
2018-09-18T06:08:56.684Z,63.00
2018-09-18T06:11:26.069Z,62.80
2018-09-18T06:13:55.390Z,62.80
2018-09-18T06:16:24.771Z,63.80
2018-09-18T06:18:54.138Z,63.20
2018-09-18T06:21:23.500Z,63.20
2018-09-18T06:23:52.859Z,63.40
2018-09-18T06:26:22.297Z,64.10
2018-09-18T06:28:51.711Z,63.50
2018-09-18T06:31:21.066Z,63.40
2018-09-18T06:33:50.508Z,63.50
2018-09-18T06:36:19.898Z,63.50
2018-09-18T06:38:49.272Z,64.30
2018-09-18T06:41:18.628Z,63.50
2018-09-18T06:43:47.971Z,63.50
2018-09-18T06:46:17.358Z,63.50
2018-09-18T06:48:46.793Z,63.60
2018-09-18T06:51:16.117Z,64.30
2018-09-18T06:53:45.487Z,63.50
2018-09-18T06:56:14.839Z,63.50
2018-09-18T06:58:44.374Z,63.50
2018-09-18T07:01:13.719Z,63.40
2018-09-18T07:03:43.122Z,63.40
2018-09-18T07:06:12.603Z,63.40
2018-09-18T07:08:41.996Z,64.40
2018-09-18T07:11:11.337Z,63.90
2018-09-18T07:13:40.699Z,63.70
2018-09-18T07:16:10.044Z,63.50
2018-09-18T07:18:39.380Z,63.40
2018-09-18T07:21:08.719Z,63.30
2018-09-18T07:23:38.109Z,63.30
2018-09-18T07:26:07.830Z,63.20
2018-09-18T07:28:37.208Z,63.40
2018-09-18T07:31:06.672Z,62.40
2018-09-18T07:33:36.033Z,63.10
2018-09-18T07:36:05.368Z,63.10
2018-09-18T07:38:34.689Z,63.00
2018-09-18T07:41:04.110Z,63.00
2018-09-18T07:43:33.362Z,62.90
2018-09-18T07:46:02.778Z,62.90
2018-09-18T07:48:36.045Z,62.80
2018-09-18T07:51:07.937Z,62.80
2018-09-18T07:53:37.336Z,62.80
2018-09-18T07:56:07.001Z,62.80
2018-09-18T07:58:36.400Z,62.70
2018-09-18T08:01:05.761Z,62.60
2018-09-18T08:03:35.122Z,62.50
2018-09-18T08:06:04.657Z,62.30
2018-09-18T08:08:34.000Z,62.30
2018-09-18T08:11:03.346Z,62.30
2018-09-18T08:13:32.706Z,62.30
2018-09-18T08:16:02.068Z,62.30
2018-09-18T08:18:31.441Z,62.30
2018-09-18T08:21:00.866Z,62.30
2018-09-18T08:23:30.268Z,62.30
2018-09-18T08:25:59.611Z,62.20
2018-09-18T08:28:28.990Z,62.10
2018-09-18T08:30:58.343Z,62.10
2018-09-18T08:33:27.756Z,62.30
2018-09-18T08:35:57.092Z,62.30
2018-09-18T08:38:26.629Z,62.20
2018-09-18T08:40:56.007Z,62.30
2018-09-18T08:43:25.338Z,62.20
2018-09-18T08:45:54.762Z,62.30
2018-09-18T08:48:28.399Z,62.30
2018-09-18T08:50:58.145Z,62.40
2018-09-18T08:53:27.529Z,62.40
2018-09-18T08:55:56.893Z,62.40
2018-09-18T08:58:26.232Z,63.10
2018-09-18T09:00:55.583Z,62.60
2018-09-18T09:03:24.952Z,62.60
2018-09-18T09:05:54.301Z,62.60
2018-09-18T09:08:23.551Z,62.60
2018-09-18T09:10:52.909Z,62.60
2018-09-18T09:13:22.217Z,62.00
2018-09-18T09:15:51.664Z,62.60
2018-09-18T09:18:20.994Z,62.60
2018-09-18T09:20:50.400Z,62.50
2018-09-18T09:23:19.660Z,62.60
2018-09-18T09:25:49.024Z,62.50
2018-09-18T09:28:18.371Z,62.50
2018-09-18T09:30:47.744Z,62.50
2018-09-18T09:33:17.073Z,62.40
2018-09-18T09:35:46.491Z,62.40
2018-09-18T09:38:15.877Z,62.90
2018-09-18T09:40:45.224Z,62.30
2018-09-18T09:43:14.592Z,62.20
2018-09-18T09:45:44.550Z,62.20
2018-09-18T09:48:13.873Z,62.10
2018-09-18T09:50:43.260Z,62.00
2018-09-18T09:53:12.595Z,62.00
2018-09-18T09:55:41.978Z,62.00
2018-09-18T09:58:11.297Z,61.90
2018-09-18T10:00:45.510Z,61.90
2018-09-18T10:03:15.531Z,62.00
2018-09-18T10:05:44.891Z,62.10
2018-09-18T10:08:14.284Z,62.10
2018-09-18T10:10:43.741Z,62.00
2018-09-18T10:13:12.951Z,62.00
2018-09-18T10:15:42.398Z,61.90
2018-09-18T10:18:11.767Z,62.00
2018-09-18T10:20:41.143Z,62.00
2018-09-18T10:23:10.482Z,62.00
2018-09-18T10:25:39.899Z,62.10
2018-09-18T10:28:09.290Z,62.00
2018-09-18T10:30:38.656Z,61.80
2018-09-18T10:33:08.043Z,61.80
2018-09-18T10:35:37.401Z,61.70
2018-09-18T10:38:06.767Z,61.80
2018-09-18T10:40:36.108Z,61.90
2018-09-18T10:43:05.474Z,61.80
2018-09-18T10:45:34.879Z,61.80
2018-09-18T10:48:04.224Z,61.80
2018-09-18T10:50:33.586Z,61.80
2018-09-18T10:53:02.926Z,61.80
2018-09-18T10:55:32.442Z,61.80
2018-09-18T10:58:01.776Z,61.80
2018-09-18T11:00:31.114Z,61.80
2018-09-18T11:03:00.435Z,61.80
2018-09-18T11:05:29.812Z,62.00
2018-09-18T11:07:59.215Z,62.00
2018-09-18T11:10:28.628Z,62.00
2018-09-18T11:12:57.944Z,62.00
2018-09-18T11:15:27.551Z,62.00
2018-09-18T11:17:56.817Z,61.90
2018-09-18T11:20:26.172Z,61.90
2018-09-18T11:22:55.510Z,61.80
2018-09-18T11:25:24.877Z,61.90
2018-09-18T11:27:54.212Z,61.90
2018-09-18T11:30:23.565Z,61.90
2018-09-18T11:32:53.028Z,61.80
2018-09-18T11:35:22.216Z,61.90
2018-09-18T11:37:51.579Z,61.80
2018-09-18T11:40:20.933Z,61.80
2018-09-18T11:42:50.243Z,61.80
2018-09-18T11:45:19.590Z,61.80
2018-09-18T11:47:48.912Z,61.80
2018-09-18T11:50:18.270Z,61.60
2018-09-18T11:52:47.685Z,61.60
2018-09-18T11:55:17.082Z,61.50
2018-09-18T11:57:46.447Z,61.60
2018-09-18T12:00:15.927Z,61.50
2018-09-18T12:02:45.421Z,62.20
2018-09-18T12:05:14.869Z,61.30
2018-09-18T12:07:44.244Z,61.40
2018-09-18T12:10:13.603Z,61.30
2018-09-18T12:12:42.986Z,61.40
2018-09-18T12:15:12.369Z,61.30
2018-09-18T12:17:41.754Z,61.30
2018-09-18T12:20:11.380Z,61.00
2018-09-18T12:22:40.826Z,61.10
2018-09-18T12:25:10.207Z,61.20
2018-09-18T12:27:39.582Z,61.00
2018-09-18T12:30:09.261Z,61.00
2018-09-18T12:32:38.633Z,61.00
2018-09-18T12:35:08.036Z,61.00
2018-09-18T12:37:37.377Z,60.80
2018-09-18T12:40:06.750Z,60.80
2018-09-18T12:42:36.249Z,60.90
2018-09-18T12:45:05.478Z,60.90
2018-09-18T12:47:34.836Z,60.80
2018-09-18T12:50:04.360Z,60.80
2018-09-18T12:52:33.591Z,60.80
2018-09-18T12:55:02.978Z,60.80
2018-09-18T12:57:32.480Z,60.70
2018-09-18T13:00:01.789Z,60.70
2018-09-18T13:02:31.129Z,60.80
2018-09-18T13:05:00.533Z,60.80
2018-09-18T13:07:29.943Z,60.80
2018-09-18T13:09:59.332Z,60.80
2018-09-18T13:12:28.676Z,60.90
2018-09-18T13:14:58.062Z,60.90
2018-09-18T13:17:27.406Z,60.90
2018-09-18T13:19:56.808Z,60.80
2018-09-18T13:22:26.110Z,60.90
2018-09-18T13:24:55.507Z,60.90
2018-09-18T13:27:24.872Z,61.00
2018-09-18T13:29:54.287Z,61.00
2018-09-18T13:32:23.673Z,61.00
2018-09-18T13:34:53.008Z,61.00
2018-09-18T13:37:22.360Z,61.10
2018-09-18T13:39:52.849Z,61.00
2018-09-18T13:42:22.226Z,61.00
2018-09-18T13:44:51.568Z,61.00
2018-09-18T13:47:20.958Z,60.90
2018-09-18T13:49:50.314Z,61.00
2018-09-18T13:52:19.730Z,61.10
2018-09-18T13:54:49.177Z,61.10
2018-09-18T13:57:18.578Z,61.20
2018-09-18T13:59:47.969Z,61.20
2018-09-18T14:02:18.255Z,61.20
2018-09-18T14:04:47.629Z,61.20
2018-09-18T14:07:16.956Z,61.20
2018-09-18T14:09:47.402Z,61.20
2018-09-18T14:12:17.313Z,61.30
2018-09-18T14:14:46.882Z,61.30
2018-09-18T14:17:16.329Z,61.20
2018-09-18T14:19:45.740Z,61.10
2018-09-18T14:22:15.183Z,61.10
2018-09-18T14:24:44.604Z,61.10
2018-09-18T14:27:13.991Z,61.10
2018-09-18T14:29:43.527Z,60.90
2018-09-18T14:32:12.947Z,60.90
2018-09-18T14:34:42.405Z,61.00
2018-09-18T14:37:11.798Z,61.10
2018-09-18T14:39:41.280Z,60.90
2018-09-18T14:42:10.656Z,61.00
2018-09-18T14:44:40.064Z,61.30
2018-09-18T14:47:09.460Z,61.00
2018-09-18T14:49:38.864Z,61.10
2018-09-18T14:52:08.323Z,61.10
2018-09-18T14:54:37.752Z,61.10
2018-09-18T14:57:07.114Z,61.10
2018-09-18T14:59:36.492Z,61.10
2018-09-18T15:02:05.905Z,61.90
2018-09-18T15:04:35.318Z,61.00
2018-09-18T15:07:04.692Z,61.00
2018-09-18T15:09:34.049Z,60.90
2018-09-18T15:12:03.482Z,60.90
2018-09-18T15:14:32.831Z,60.80
2018-09-18T15:17:02.221Z,61.30
2018-09-18T15:19:35.322Z,60.70
2018-09-18T15:22:06.554Z,60.60
2018-09-18T15:24:37.756Z,60.90
2018-09-18T15:27:07.193Z,60.80
2018-09-18T15:29:36.601Z,60.90
2018-09-18T15:32:06.217Z,60.90
2018-09-18T16:13:57.897Z,63.90
2018-09-18T16:16:27.335Z,65.30
2018-09-18T16:18:56.858Z,65.30
2018-09-18T16:21:26.285Z,65.40
2018-09-18T16:23:55.822Z,65.10
2018-09-18T16:26:25.239Z,64.90
2018-09-18T16:28:54.703Z,64.60
2018-09-18T16:31:24.128Z,64.30
2018-09-18T16:33:53.613Z,64.20
2018-09-18T16:36:23.043Z,64.00
2018-09-18T16:38:52.589Z,63.70
2018-09-18T16:41:22.101Z,63.50
2018-09-18T16:43:51.557Z,63.50
2018-09-18T16:46:21.179Z,63.30
2018-09-18T16:48:50.669Z,63.20
2018-09-18T16:51:20.148Z,63.00
2018-09-18T16:53:49.637Z,62.90
2018-09-18T16:56:19.053Z,62.90
2018-09-18T16:58:48.493Z,62.70
2018-09-18T17:01:17.887Z,62.60
2018-09-18T17:03:47.436Z,62.60
2018-09-18T17:06:16.877Z,62.40
2018-09-18T17:08:46.312Z,62.40
2018-09-18T17:11:15.706Z,62.40
2018-09-18T17:13:45.192Z,62.30
2018-09-18T17:16:26.192Z,62.30
2018-09-18T17:18:55.607Z,62.10
2018-09-18T17:21:25.043Z,62.90
2018-09-18T17:23:54.511Z,62.80
2018-09-18T17:26:23.928Z,62.60
2018-09-18T17:28:53.522Z,62.30
2018-09-18T17:31:22.810Z,62.10
2018-09-18T17:33:52.276Z,62.10
2018-09-18T17:36:21.695Z,62.80
2018-09-18T17:38:51.070Z,61.90
2018-09-18T17:41:20.517Z,61.90
2018-09-18T17:43:49.957Z,61.80
2018-09-18T17:46:19.397Z,61.80
2018-09-18T17:48:48.924Z,61.80
2018-09-18T17:51:18.363Z,61.70
2018-09-18T17:53:48.424Z,61.70
2018-09-18T17:56:17.916Z,61.60
2018-09-18T17:58:47.361Z,61.70
2018-09-18T18:01:16.968Z,61.70
2018-09-18T18:03:46.365Z,61.60
2018-09-18T18:06:15.867Z,61.60
2018-09-18T18:08:45.339Z,61.60
2018-09-18T18:11:14.827Z,61.60
2018-09-18T18:13:44.230Z,61.70
2018-09-18T18:16:13.713Z,61.80
2018-09-18T18:18:43.196Z,61.80
2018-09-18T18:21:12.675Z,61.80
2018-09-18T18:23:42.144Z,61.70
2018-09-18T18:26:11.698Z,61.70
2018-09-18T18:28:41.461Z,61.80
2018-09-18T18:31:10.931Z,61.70
2018-09-18T18:33:40.452Z,61.60
2018-09-18T18:36:09.905Z,61.70
2018-09-18T18:38:39.396Z,61.80
2018-09-18T18:41:08.871Z,61.70
2018-09-18T18:43:38.330Z,61.80
2018-09-18T18:46:08.001Z,61.80
2018-09-18T18:48:37.596Z,61.80
2018-09-18T18:51:07.008Z,61.70
2018-09-18T18:53:36.520Z,61.80
2018-09-18T18:56:06.213Z,61.80
2018-09-18T18:58:35.770Z,61.80
2018-09-18T19:01:05.194Z,61.80
2018-09-18T19:03:34.631Z,61.80
2018-09-18T19:06:04.166Z,61.80
2018-09-18T19:08:33.951Z,61.80
2018-09-18T19:11:03.459Z,62.10
2018-09-18T19:13:33.003Z,62.00
2018-09-18T19:16:02.571Z,62.00
2018-09-18T19:18:32.132Z,62.00
2018-09-18T19:21:01.515Z,62.00
2018-09-18T19:23:31.284Z,62.00
2018-09-18T19:26:00.937Z,62.00
2018-09-18T19:28:30.610Z,62.00
2018-09-18T19:31:00.104Z,63.00
2018-09-18T19:33:29.596Z,62.90
2018-09-18T19:35:59.148Z,62.60
2018-09-18T19:38:28.864Z,62.60
2018-09-18T19:40:58.737Z,62.60
2018-09-18T19:43:28.393Z,62.40
2018-09-18T19:45:58.018Z,62.30
2018-09-18T19:48:27.490Z,62.30
2018-09-18T19:50:56.940Z,62.30
2018-09-18T19:53:26.676Z,62.30
2018-09-18T19:55:56.163Z,62.30
2018-09-18T19:58:25.731Z,62.30
2018-09-18T20:00:55.337Z,62.20
2018-09-18T20:03:25.069Z,62.30
2018-09-18T20:05:54.592Z,62.60
2018-09-18T20:08:24.153Z,62.70
2018-09-18T20:10:53.796Z,62.60
2018-09-18T20:13:23.177Z,62.60
2018-09-18T20:15:52.671Z,62.60
2018-09-18T20:18:22.082Z,62.60
2018-09-18T20:20:51.728Z,62.70
2018-09-18T20:23:21.101Z,62.80
2018-09-18T20:25:50.659Z,63.00
2018-09-18T20:28:20.129Z,63.10
2018-09-18T20:30:49.779Z,63.00
2018-09-18T20:33:19.412Z,63.10
2018-09-18T20:35:49.035Z,63.80
2018-09-18T20:38:18.388Z,63.30
2018-09-18T20:40:47.856Z,63.30
2018-09-18T20:43:17.283Z,63.30
2018-09-18T20:45:46.917Z,63.40
2018-09-18T20:48:16.460Z,63.50
2018-09-18T20:50:46.021Z,63.50
2018-09-18T20:53:15.359Z,63.60
2018-09-18T20:55:45.003Z,63.80
2018-09-18T20:58:14.460Z,63.90
2018-09-18T21:00:43.842Z,64.00
2018-09-18T21:03:13.248Z,64.00
2018-09-18T21:05:42.996Z,64.00
2018-09-18T21:08:12.463Z,64.10
2018-09-18T21:10:42.141Z,64.10
2018-09-18T21:13:11.639Z,64.40
2018-09-18T21:15:41.110Z,64.30
2018-09-18T21:18:10.563Z,64.40
2018-09-18T21:20:40.023Z,64.60
2018-09-18T21:23:09.539Z,64.60
2018-09-18T21:26:15.778Z,64.80
2018-09-18T21:28:45.185Z,64.70
2018-09-18T21:31:14.757Z,64.60
2018-09-18T21:33:44.125Z,64.90
2018-09-18T21:36:13.504Z,65.60
2018-09-18T21:38:42.876Z,64.90
2018-09-18T21:41:12.251Z,65.00
2018-09-18T21:43:41.792Z,65.00
2018-09-18T21:46:11.272Z,66.30
2018-09-18T21:48:40.593Z,65.50
2018-09-18T21:51:10.343Z,65.60
2018-09-18T21:53:39.740Z,65.40
2018-09-18T21:56:09.183Z,65.50
2018-09-18T21:58:38.566Z,65.60
2018-09-18T22:01:07.972Z,65.70
2018-09-18T22:03:37.356Z,66.40
2018-09-18T22:06:06.832Z,65.70
2018-09-18T22:08:36.967Z,65.80
2018-09-18T22:11:06.371Z,65.90
2018-09-18T22:13:35.772Z,66.00
2018-09-18T22:16:05.181Z,66.00
2018-09-18T22:18:34.751Z,66.10
2018-09-18T22:21:04.107Z,66.70
2018-09-18T22:23:33.521Z,66.00
2018-09-18T22:26:03.028Z,66.00
2018-09-18T22:28:32.541Z,66.10
2018-09-18T22:31:02.060Z,66.10
2018-09-18T22:33:31.478Z,66.00
2018-09-18T22:36:00.987Z,66.10
2018-09-18T22:38:30.367Z,65.90
2018-09-18T22:40:59.932Z,66.00
2018-09-18T22:43:29.337Z,66.10
2018-09-18T22:45:58.728Z,66.00
2018-09-18T22:48:28.150Z,66.00
2018-09-18T22:50:57.613Z,66.10
2018-09-18T22:53:26.964Z,66.10
2018-09-18T22:55:56.320Z,66.20
2018-09-18T22:58:25.884Z,66.20
2018-09-18T23:00:55.233Z,66.30
2018-09-18T23:03:24.575Z,66.50
2018-09-18T23:05:54.031Z,66.50
2018-09-18T23:08:23.418Z,66.50
2018-09-18T23:10:52.782Z,66.70
2018-09-18T23:13:22.127Z,67.30
2018-09-18T23:15:51.501Z,67.00
2018-09-18T23:18:20.872Z,67.10
2018-09-18T23:20:50.200Z,67.20
2018-09-18T23:23:19.902Z,67.20
2018-09-18T23:25:49.307Z,67.20
2018-09-18T23:28:18.644Z,67.30
2018-09-18T23:30:48.004Z,67.20
2018-09-18T23:33:17.493Z,67.20
2018-09-18T23:35:46.829Z,67.10
2018-09-18T23:38:16.218Z,67.10
2018-09-18T23:40:45.667Z,67.10
2018-09-18T23:43:15.055Z,67.10
2018-09-18T23:45:44.422Z,67.30
2018-09-18T23:48:13.875Z,67.30
2018-09-18T23:50:43.306Z,67.30
2018-09-18T23:53:12.715Z,67.20
2018-09-18T23:55:42.205Z,67.20
2018-09-18T23:58:11.592Z,67.10
